createdAt,value
2023-01-27T00:04:32.355Z,0
2023-01-27T00:10:55.405Z,0
2023-01-27T00:17:15.493Z,0
2023-01-27T00:23:38.393Z,0
2023-01-27T00:29:58.429Z,0
2023-01-27T00:36:21.434Z,0
2023-01-27T00:42:41.485Z,0
2023-01-27T00:49:04.449Z,0
2023-01-27T00:55:24.555Z,0
2023-01-27T01:01:47.595Z,0
2023-01-27T01:08:07.512Z,0
2023-01-27T01:14:30.540Z,0
2023-01-27T01:20:50.410Z,0
2023-01-27T01:27:13.459Z,0
2023-01-27T01:33:33.451Z,0
2023-01-27T01:39:56.346Z,0
2023-01-27T01:46:16.368Z,0
2023-01-27T01:52:39.475Z,0
2023-01-27T01:58:59.431Z,0
2023-01-27T02:05:22.402Z,0
2023-01-27T02:11:42.368Z,0
2023-01-27T02:18:05.477Z,0
2023-01-27T02:24:25.536Z,0
2023-01-27T02:30:48.515Z,0
2023-01-27T02:37:08.379Z,0
2023-01-27T02:43:31.348Z,0
2023-01-27T02:49:51.415Z,0
2023-01-27T02:56:14.371Z,0
2023-01-27T03:02:34.490Z,0
2023-01-27T03:08:57.369Z,0
2023-01-27T03:15:17.388Z,0
2023-01-27T03:21:40.509Z,0
2023-01-27T03:28:00.464Z,0
2023-01-27T03:34:23.464Z,0
2023-01-27T03:40:43.374Z,0
2023-01-27T03:47:06.439Z,0
2023-01-27T03:53:26.431Z,0
2023-01-27T03:59:49.358Z,0
2023-01-27T04:06:09.601Z,0
2023-01-27T04:22:20.403Z,0
2023-01-27T04:28:44.459Z,0
2023-01-27T04:35:03.473Z,0
2023-01-27T04:41:23.338Z,0
2023-01-27T04:47:46.403Z,0
2023-01-27T04:54:06.334Z,0
2023-01-27T05:00:29.471Z,0
2023-01-27T05:06:49.430Z,0
2023-01-27T05:13:12.479Z,0
2023-01-27T05:19:32.499Z,0
2023-01-27T05:25:55.381Z,0
2023-01-27T05:32:15.353Z,0
2023-01-27T05:38:38.423Z,0
2023-01-27T05:44:58.444Z,0
2023-01-27T05:51:21.360Z,0
2023-01-27T05:57:41.385Z,0
2023-01-27T06:04:04.415Z,0
2023-01-27T06:10:24.416Z,0
2023-01-27T06:16:47.531Z,0
2023-01-27T06:23:07.366Z,0
2023-01-27T06:29:30.494Z,0
2023-01-27T06:35:50.459Z,0
2023-01-27T06:42:13.418Z,0
2023-01-27T06:48:33.441Z,1
2023-01-27T06:54:56.560Z,3
2023-01-27T07:01:16.460Z,7
2023-01-27T07:07:39.447Z,18
2023-01-27T07:13:59.427Z,33
2023-01-27T07:20:22.331Z,45
2023-01-27T07:26:42.464Z,75
2023-01-27T07:33:05.390Z,135
2023-01-27T07:39:25.420Z,252
2023-01-27T07:45:48.398Z,373
2023-01-27T07:52:08.369Z,444
2023-01-27T07:58:31.422Z,564
2023-01-27T08:04:53.458Z,714
2023-01-27T08:11:14.553Z,782
2023-01-27T08:17:34.389Z,933
2023-01-27T08:23:57.340Z,995
2023-01-27T08:30:17.392Z,959
2023-01-27T08:36:40.327Z,965
2023-01-27T08:43:00.389Z,945
2023-01-27T08:49:23.628Z,967
2023-01-27T08:55:43.425Z,1151
2023-01-27T09:02:06.422Z,1223
2023-01-27T09:08:26.459Z,1378
2023-01-27T09:32:38.292Z,1588
2023-01-27T09:39:01.341Z,1357
2023-01-27T09:45:21.354Z,1298
2023-01-27T09:51:44.379Z,2112
2023-01-27T09:58:04.439Z,1805
2023-01-27T10:04:27.536Z,1588
2023-01-27T10:10:47.372Z,1583
2023-01-27T10:17:10.452Z,1892
2023-01-27T10:23:30.480Z,1730
2023-01-27T10:29:53.410Z,2504
2023-01-27T10:36:13.398Z,2522
2023-01-27T10:42:36.391Z,2400
2023-01-27T10:48:56.434Z,2735
2023-01-27T10:55:19.446Z,1774
2023-01-27T11:01:39.503Z,2205
2023-01-27T11:08:02.458Z,2275
2023-01-27T11:14:22.487Z,2007
2023-01-27T11:20:45.328Z,2633
2023-01-27T11:27:05.429Z,2466
2023-01-27T11:33:28.351Z,1841
2023-01-27T11:39:49.692Z,2303
2023-01-27T11:46:13.713Z,3233
2023-01-27T11:52:33.393Z,4326
2023-01-27T11:58:56.580Z,1967
2023-01-27T12:05:16.472Z,2303
2023-01-27T12:11:39.443Z,2106
2023-01-27T12:17:59.394Z,1878
2023-01-27T12:24:22.590Z,2360
2023-01-27T12:30:42.468Z,2253
2023-01-27T12:37:05.362Z,2469
2023-01-27T12:43:25.414Z,4156
2023-01-27T12:49:48.386Z,4976
2023-01-27T12:56:08.487Z,2693
2023-01-27T13:02:31.389Z,2953
2023-01-27T13:08:51.779Z,1785
2023-01-27T13:15:14.368Z,1740
2023-01-27T13:21:34.453Z,1922
2023-01-27T13:27:57.385Z,1823
2023-01-27T13:34:17.393Z,1509
2023-01-27T13:40:40.464Z,1902
2023-01-27T13:47:00.575Z,1519
2023-01-27T13:53:23.344Z,1066
2023-01-27T13:59:43.442Z,1099
2023-01-27T14:06:06.489Z,822
2023-01-27T14:12:26.457Z,871
2023-01-27T14:18:49.423Z,889
2023-01-27T14:41:38.283Z,804
2023-01-27T14:47:58.324Z,886
2023-01-27T14:54:21.340Z,853
2023-01-27T15:00:41.401Z,780
2023-01-27T15:07:04.503Z,786
2023-01-27T15:13:24.410Z,569
2023-01-27T15:19:47.383Z,455
2023-01-27T15:26:07.366Z,467
2023-01-27T15:32:30.503Z,546
2023-01-27T15:38:50.428Z,557
2023-01-27T15:45:13.785Z,402
2023-01-27T15:51:33.409Z,249
2023-01-27T15:57:56.475Z,107
2023-01-27T16:04:16.422Z,66
2023-01-27T16:10:39.378Z,34
2023-01-27T16:16:59.424Z,24
2023-01-27T16:23:22.458Z,14
2023-01-27T16:29:42.531Z,6
2023-01-27T16:36:05.588Z,4
2023-01-27T16:42:25.467Z,1
2023-01-27T16:48:48.507Z,1
2023-01-27T16:55:08.446Z,0
2023-01-27T17:01:31.778Z,0
2023-01-27T17:07:51.517Z,0
2023-01-27T17:14:24.753Z,0
2023-01-27T17:20:34.483Z,0
2023-01-27T17:26:57.337Z,0
2023-01-27T17:33:17.588Z,0
2023-01-27T17:39:40.417Z,0
2023-01-27T17:46:00.488Z,0
2023-01-27T17:52:23.450Z,0
2023-01-27T17:58:43.391Z,0
2023-01-27T18:05:06.497Z,0
2023-01-27T18:11:26.433Z,0
2023-01-27T18:17:49.442Z,0
2023-01-27T18:24:09.502Z,0
2023-01-27T18:30:32.418Z,0
2023-01-27T18:36:52.374Z,0
2023-01-27T18:43:15.350Z,0
2023-01-27T18:49:35.433Z,0
2023-01-27T18:55:58.369Z,0
2023-01-27T19:02:18.460Z,0
2023-01-27T19:08:41.474Z,0
2023-01-27T19:15:01.434Z,0
2023-01-27T19:21:24.384Z,0
2023-01-27T19:44:12.327Z,0
2023-01-27T19:50:32.341Z,0
2023-01-27T19:56:55.493Z,0
2023-01-27T20:03:15.458Z,0
2023-01-27T20:09:38.663Z,0
2023-01-27T20:15:58.367Z,0
2023-01-27T20:22:21.432Z,0
2023-01-27T20:28:41.522Z,0
2023-01-27T20:35:04.357Z,0
2023-01-27T20:41:24.456Z,0
2023-01-27T20:47:47.351Z,0
2023-01-27T20:54:07.390Z,0
2023-01-27T21:00:30.550Z,0
2023-01-27T21:06:50.331Z,0
2023-01-27T21:13:13.375Z,0
2023-01-27T21:19:33.392Z,0
2023-01-27T21:25:56.383Z,0
2023-01-27T21:32:16.626Z,0
2023-01-27T21:38:39.573Z,0
2023-01-27T21:44:59.385Z,0
2023-01-27T21:51:22.335Z,0
2023-01-27T21:57:42.352Z,0
2023-01-27T22:04:05.500Z,0
2023-01-27T22:10:25.403Z,0
2023-01-27T22:16:48.610Z,0
2023-01-27T22:23:08.379Z,0
2023-01-27T22:29:31.378Z,0
2023-01-27T22:35:51.694Z,0
2023-01-27T22:42:14.394Z,0
2023-01-27T22:48:34.444Z,0
2023-01-27T22:54:57.493Z,0
2023-01-27T23:20:28.350Z,0
2023-01-27T23:26:48.324Z,0
2023-01-27T23:33:11.346Z,0
2023-01-27T23:39:31.350Z,0
2023-01-27T23:45:54.389Z,0
2023-01-27T23:52:14.395Z,0
2023-01-27T23:58:37.609Z,0
